Wind From: 11-12-2017 07:30 Until: 12-12-2017 06:00 warning for: Wind Level: Orange info button

Power and phone distribution networks may be disrupted for relatively long periods., Roofs and chimneys can be damaged. , Tree branches may break. , Vehicles can be deported. , Traffic may be disrupted, particularly on secondary roads in forest areas. Limit your trips. , Limit your speed in highway driving, especially if you drive a vehicle or hitch sensitive to wind. , Do not go for walks in forests or along the coast., In town, be vigilant against possible falling objects., Do not work on roofs and do not touch any electrical line fallen on the ground., Store or secure sensitive objects to wind or likely to be damaged., Always install power generators outside buildings. 


Meteo18 Weather Cam more information Meteo18 Weather Cam


Thunder radar more information blitzortung!


Rain radar more information rain snow radar


Visit our other weather sites:

Template documentation
and downloads

And another site



Weather Underground History page Text

Daily Summary for February 7, 2016 Units:  Metric    English   Both
« Previous Day
Next Day »
Daily Weekly Monthly Yearly Custom
  High: Low: Average:
Temperature: 10.3 °C 5.6 °C 7.8 °C
Dew Point: 7.7 °C 4.1 °C 5.6 °C
Humidity: 95 % 68 % 86 %
Wind Speed: 19.3 km/h 0.0 km/h 4.7 km/h
Wind Gust: 29.0 km/h - -
Wind:- - SW
Pressure: 1011.4 hPa 1000.6 hPa -
Precipitation: 7.4 mm    
Historical Graphs
 
 
Tabular Data for February 7, 2016
Time Temperature Dew Point Pressure Wind Wind Speed Wind Gust Humidity Rainfall Rate (Hourly)
00:02 9.7 °C 6.0 °C 1001.2 hPa SW 1.6 km/h 4.8 km/h 78 % 0.0 mm
00:07 9.8 °C 6.1 °C 1001.2 hPa WSW 1.6 km/h 3.2 km/h 78 % 0.0 mm
00:12 9.9 °C 6.2 °C 1000.9 hPa West 1.6 km/h 4.8 km/h 78 % 0.0 mm
00:17 9.9 °C 6.2 °C 1000.9 hPa SW 1.6 km/h 6.4 km/h 78 % 0.0 mm
00:22 9.9 °C 6.2 °C 1000.9 hPa WSW 1.6 km/h 9.7 km/h 78 % 0.0 mm
00:27 9.9 °C 6.4 °C 1000.9 hPa West 1.6 km/h 9.7 km/h 79 % 0.0 mm
00:32 9.9 °C 6.4 °C 1000.9 hPa West 1.6 km/h 4.8 km/h 79 % 0.0 mm
00:42 10.1 °C 6.8 °C 1000.9 hPa SSW 3.2 km/h 6.4 km/h 80 % 0.0 mm
00:47 10.1 °C 6.8 °C 1000.9 hPa Calm   6.4 km/h 80 % 0.0 mm
00:57 9.8 °C 6.7 °C 1000.9 hPa West 1.6 km/h 6.4 km/h 81 % 0.0 mm
01:02 9.8 °C 6.9 °C 1000.9 hPa West 1.6 km/h 4.8 km/h 82 % 0.0 mm
01:07 9.8 °C 6.9 °C 1000.9 hPa WSW 1.6 km/h 4.8 km/h 82 % 0.0 mm
01:12 9.8 °C 6.9 °C 1000.9 hPa Calm   4.8 km/h 82 % 0.0 mm
01:17 9.8 °C 6.9 °C 1000.9 hPa West 1.6 km/h 4.8 km/h 82 % 0.0 mm
01:22 9.8 °C 6.9 °C 1000.6 hPa Calm   3.2 km/h 82 % 0.0 mm
01:27 9.8 °C 7.1 °C 1000.6 hPa SW 1.6 km/h 3.2 km/h 83 % 0.0 mm
01:37 9.6 °C 7.2 °C 1000.6 hPa Calm   3.2 km/h 85 % 0.0 mm
01:42 9.5 °C 7.1 °C 1000.9 hPa WSW 3.2 km/h 4.8 km/h 85 % 0.0 mm
01:47 9.4 °C 7.3 °C 1000.9 hPa Calm   4.8 km/h 87 % 0.3 mm
01:52 9.3 °C 7.2 °C 1000.9 hPa SW 3.2 km/h 4.8 km/h 87 % 0.3 mm
01:57 9.2 °C 7.3 °C 1000.6 hPa WSW 9.7 km/h 9.7 km/h 88 % 0.3 mm
02:02 9.4 °C 7.3 °C 1000.9 hPa WSW 6.4 km/h 16.1 km/h 87 % 0.5 mm
02:07 9.4 °C 7.3 °C 1000.9 hPa East 3.2 km/h 16.1 km/h 87 % 0.5 mm
02:17 9.3 °C 7.4 °C 1000.9 hPa SW 3.2 km/h 12.9 km/h 88 % 0.8 mm
02:27 9.4 °C 7.5 °C 1000.9 hPa WSW 4.8 km/h 8.0 km/h 88 % 1.0 mm
02:32 9.5 °C 7.6 °C 1000.9 hPa SW 8.0 km/h 9.7 km/h 88 % 1.3 mm
02:37 9.5 °C 7.6 °C 1000.9 hPa WSW 3.2 km/h 12.9 km/h 88 % 1.3 mm
02:42 9.6 °C 7.7 °C 1000.9 hPa SSW 8.0 km/h 12.9 km/h 88 % 1.5 mm
02:47 9.6 °C 7.7 °C 1000.9 hPa SW 9.7 km/h 16.1 km/h 88 % 1.3 mm
02:52 9.6 °C 7.5 °C 1001.2 hPa SE 6.4 km/h 16.1 km/h 87 % 1.5 mm
02:57 9.7 °C 7.6 °C 1001.2 hPa South 9.7 km/h 24.1 km/h 87 % 1.5 mm
03:02 9.7 °C 7.6 °C 1001.2 hPa SW 11.3 km/h 24.1 km/h 87 % 1.5 mm
03:07 9.6 °C 7.5 °C 1001.2 hPa SW 6.4 km/h 24.1 km/h 87 % 1.5 mm
03:12 9.6 °C 7.5 °C 1001.2 hPa SW 16.1 km/h 22.5 km/h 87 % 1.5 mm
03:17 9.5 °C 7.6 °C 1001.2 hPa SW 19.3 km/h 24.1 km/h 88 % 1.3 mm
03:22 9.4 °C 7.5 °C 1001.2 hPa WSW 8.0 km/h 24.1 km/h 88 % 1.3 mm
03:27 9.3 °C 7.4 °C 1001.2 hPa WSW 11.3 km/h 22.5 km/h 88 % 1.3 mm
03:37 9.2 °C 7.5 °C 1001.2 hPa SW 16.1 km/h 29.0 km/h 89 % 1.0 mm
03:52 8.2 °C 6.5 °C 1001.6 hPa WSW 9.7 km/h 27.4 km/h 89 % 1.8 mm
03:57 7.9 °C 6.5 °C 1001.9 hPa West 4.8 km/h 25.7 km/h 91 % 1.8 mm
04:02 7.8 °C 6.6 °C 1001.9 hPa SW 11.3 km/h 25.7 km/h 92 % 2.3 mm
04:07 7.7 °C 6.6 °C 1001.9 hPa SW 3.2 km/h 22.5 km/h 93 % 2.0 mm
04:12 7.7 °C 6.6 °C 1001.9 hPa SW 6.4 km/h 20.9 km/h 93 % 2.3 mm
04:17 7.6 °C 6.5 °C 1001.9 hPa West 3.2 km/h 19.3 km/h 93 % 2.3 mm
04:22 7.6 °C 6.5 °C 1001.9 hPa WSW 3.2 km/h 16.1 km/h 93 % 2.3 mm
04:27 7.6 °C 6.5 °C 1001.9 hPa WSW 1.6 km/h 14.5 km/h 93 % 2.3 mm
04:42 7.4 °C 6.3 °C 1001.9 hPa SW 4.8 km/h 17.7 km/h 93 % 2.5 mm
04:47 7.4 °C 6.5 °C 1002.3 hPa WSW 4.8 km/h 17.7 km/h 94 % 2.3 mm
04:52 7.4 °C 6.5 °C 1002.3 hPa SW 4.8 km/h 17.7 km/h 94 % 1.8 mm
04:57 7.4 °C 6.5 °C 1002.3 hPa SW 6.4 km/h 16.1 km/h 94 % 1.5 mm
05:02 7.3 °C 6.4 °C 1002.3 hPa SW 4.8 km/h 12.9 km/h 94 % 1.5 mm
05:12 7.3 °C 6.4 °C 1002.3 hPa SW 4.8 km/h 16.1 km/h 94 % 1.5 mm
05:17 7.3 °C 6.4 °C 1002.3 hPa SW 12.9 km/h 16.1 km/h 94 % 1.5 mm
05:22 7.3 °C 6.4 °C 1002.6 hPa SW 8.0 km/h 14.5 km/h 94 % 1.5 mm
05:27 7.3 °C 6.4 °C 1002.6 hPa West 4.8 km/h 19.3 km/h 94 % 1.3 mm
05:32 7.2 °C 6.3 °C 1002.6 hPa SW 6.4 km/h 19.3 km/h 94 % 1.3 mm
05:37 7.2 °C 6.3 °C 1002.6 hPa WSW 4.8 km/h 19.3 km/h 94 % 1.5 mm
05:42 7.2 °C 6.3 °C 1002.6 hPa SW 11.3 km/h 16.1 km/h 94 % 1.3 mm
05:47 7.2 °C 6.3 °C 1002.6 hPa WSW 9.7 km/h 14.5 km/h 94 % 1.3 mm
05:52 7.2 °C 6.3 °C 1002.9 hPa WSW 1.6 km/h 16.1 km/h 94 % 1.0 mm
05:57 7.2 °C 6.3 °C 1002.9 hPa SW 8.0 km/h 16.1 km/h 94 % 1.3 mm
06:02 7.2 °C 6.3 °C 1002.9 hPa Calm   11.3 km/h 94 % 1.0 mm
06:07 7.1 °C 6.4 °C 1002.9 hPa SW 4.8 km/h 12.9 km/h 95 % 1.0 mm
06:12 7.1 °C 6.4 °C 1002.6 hPa WSW 6.4 km/h 12.9 km/h 95 % 1.0 mm
06:17 7.1 °C 6.4 °C 1002.6 hPa SSW 8.0 km/h 12.9 km/h 95 % 1.0 mm
06:22 7.1 °C 6.4 °C 1002.6 hPa SSW 1.6 km/h 14.5 km/h 95 % 0.8 mm
06:32 7.0 °C 6.3 °C 1002.6 hPa East 1.6 km/h 14.5 km/h 95 % 0.8 mm
06:37 7.1 °C 6.2 °C 1002.6 hPa SW 1.6 km/h 9.7 km/h 94 % 0.5 mm
06:47 7.1 °C 6.2 °C 1002.9 hPa SW 3.2 km/h 20.9 km/h 94 % 0.5 mm
06:52 7.1 °C 6.2 °C 1002.9 hPa SSW 3.2 km/h 20.9 km/h 94 % 0.5 mm
07:02 7.1 °C 6.2 °C 1002.9 hPa SW 1.6 km/h 11.3 km/h 94 % 0.5 mm
07:12 7.0 °C 6.1 °C 1002.9 hPa SSW 1.6 km/h 11.3 km/h 94 % 0.3 mm
07:17 7.0 °C 6.1 °C 1002.9 hPa SW 1.6 km/h 9.7 km/h 94 % 0.3 mm
07:22 6.9 °C 6.0 °C 1003.3 hPa WSW 6.4 km/h 14.5 km/h 94 % 0.0 mm
07:27 6.9 °C 6.0 °C 1003.3 hPa SW 1.6 km/h 14.5 km/h 94 % 0.0 mm
07:32 6.9 °C 6.0 °C 1003.3 hPa SW 3.2 km/h 14.5 km/h 94 % 0.0 mm
07:37 6.9 °C 6.0 °C 1003.3 hPa WSW 1.6 km/h 12.9 km/h 94 % 0.0 mm
07:42 6.9 °C 6.0 °C 1003.3 hPa Calm   12.9 km/h 94 % 0.0 mm
07:52 7.0 °C 6.1 °C 1003.6 hPa SW 3.2 km/h 19.3 km/h 94 % 0.0 mm
07:57 7.0 °C 6.1 °C 1003.6 hPa SW 1.6 km/h 19.3 km/h 94 % 0.0 mm
08:02 7.0 °C 6.1 °C 1003.9 hPa SSW 1.6 km/h 19.3 km/h 94 % 0.0 mm
08:07 7.0 °C 6.1 °C 1003.9 hPa Calm   14.5 km/h 94 % 0.0 mm
08:12 6.9 °C 5.7 °C 1003.9 hPa NNW 4.8 km/h 14.5 km/h 92 % 0.0 mm
08:17 6.8 °C 5.4 °C 1003.9 hPa SSW 3.2 km/h 17.7 km/h 91 % 0.3 mm
08:22 6.7 °C 5.3 °C 1003.9 hPa SSW 6.4 km/h 17.7 km/h 91 % 0.3 mm
08:32 6.6 °C 5.4 °C 1004.3 hPa WSW 1.6 km/h 8.0 km/h 92 % 0.3 mm
08:37 6.5 °C 5.3 °C 1004.3 hPa SSE 1.6 km/h 8.0 km/h 92 % 0.3 mm
08:42 6.4 °C 5.2 °C 1004.6 hPa WSW 4.8 km/h 9.7 km/h 92 % 0.3 mm
08:52 6.4 °C 5.4 °C 1004.6 hPa SW 3.2 km/h 8.0 km/h 93 % 0.3 mm
09:02 6.6 °C 5.7 °C 1005.0 hPa Calm   9.7 km/h 94 % 0.3 mm
09:07 6.7 °C 5.8 °C 1005.0 hPa SW 6.4 km/h 9.7 km/h 94 % 0.3 mm
09:12 6.7 °C 5.8 °C 1005.0 hPa SW 3.2 km/h 11.3 km/h 94 % 0.0 mm
09:17 6.8 °C 5.9 °C 1005.3 hPa SW 3.2 km/h 11.3 km/h 94 % 0.0 mm
09:22 6.8 °C 5.9 °C 1005.3 hPa SW 4.8 km/h 11.3 km/h 94 % 0.0 mm
09:27 6.9 °C 6.0 °C 1005.6 hPa SW 3.2 km/h 9.7 km/h 94 % 0.0 mm
09:32 6.9 °C 5.8 °C 1005.3 hPa SSW 1.6 km/h 12.9 km/h 93 % 0.0 mm
09:37 7.0 °C 5.9 °C 1005.6 hPa SE 3.2 km/h 12.9 km/h 93 % 0.0 mm
09:42 7.0 °C 5.9 °C 1005.6 hPa SSW 1.6 km/h 12.9 km/h 93 % 0.0 mm
09:47 7.1 °C 5.9 °C 1005.6 hPa Calm   9.7 km/h 92 % 0.0 mm
09:52 7.1 °C 5.9 °C 1005.6 hPa SSW 3.2 km/h 11.3 km/h 92 % 0.0 mm
09:57 7.1 °C 5.9 °C 1005.6 hPa WSW 3.2 km/h 12.9 km/h 92 % 0.0 mm
10:02 7.1 °C 5.9 °C 1005.6 hPa SW 1.6 km/h 12.9 km/h 92 % 0.0 mm
10:07 7.1 °C 5.9 °C 1005.6 hPa SW 3.2 km/h 12.9 km/h 92 % 0.0 mm
10:12 7.1 °C 5.9 °C 1005.6 hPa SW 3.2 km/h 12.9 km/h 92 % 0.0 mm
10:17 7.1 °C 5.9 °C 1005.6 hPa SW 8.0 km/h 14.5 km/h 92 % 0.0 mm
10:22 7.1 °C 5.7 °C 1005.6 hPa SSW 9.7 km/h 14.5 km/h 91 % 0.0 mm
10:27 7.2 °C 6.0 °C 1006.0 hPa SSW 3.2 km/h 14.5 km/h 92 % 0.0 mm
10:32 7.4 °C 6.0 °C 1006.0 hPa WSW 1.6 km/h 14.5 km/h 91 % 0.0 mm
10:37 7.5 °C 6.0 °C 1006.0 hPa SW 3.2 km/h 11.3 km/h 90 % 0.0 mm
10:42 7.5 °C 5.8 °C 1006.3 hPa WSW 1.6 km/h 14.5 km/h 89 % 0.0 mm
10:47 7.6 °C 5.9 °C 1006.3 hPa SW 3.2 km/h 14.5 km/h 89 % 0.0 mm
10:52 7.6 °C 5.9 °C 1006.3 hPa West 4.8 km/h 12.9 km/h 89 % 0.0 mm
10:57 7.7 °C 5.8 °C 1006.3 hPa SW 9.7 km/h 17.7 km/h 88 % 0.0 mm
11:07 8.0 °C 6.1 °C 1006.7 hPa WSW 1.6 km/h 17.7 km/h 88 % 0.0 mm
11:12 8.1 °C 5.9 °C 1006.7 hPa WSW 6.4 km/h 17.7 km/h 86 % 0.0 mm
11:17 8.1 °C 6.1 °C 1006.7 hPa NW 1.6 km/h 17.7 km/h 87 % 0.0 mm
11:22 8.1 °C 6.1 °C 1007.0 hPa SSW 6.4 km/h 16.1 km/h 87 % 0.0 mm
11:27 8.1 °C 5.7 °C 1007.0 hPa WSW 3.2 km/h 16.1 km/h 85 % 0.0 mm
11:32 8.2 °C 6.2 °C 1007.0 hPa WSW 1.6 km/h 14.5 km/h 87 % 0.0 mm
11:37 8.3 °C 6.3 °C 1007.0 hPa South 3.2 km/h 14.5 km/h 87 % 0.0 mm
11:52 8.4 °C 5.7 °C 1007.3 hPa WSW 9.7 km/h 16.1 km/h 83 % 0.0 mm
11:57 8.4 °C 5.9 °C 1007.3 hPa SW 12.9 km/h 17.7 km/h 84 % 0.0 mm
12:02 8.6 °C 6.0 °C 1007.3 hPa West 1.6 km/h 17.7 km/h 84 % 0.0 mm
12:07 8.9 °C 6.2 °C 1007.7 hPa WSW 3.2 km/h 17.7 km/h 83 % 0.0 mm
12:12 8.8 °C 6.1 °C 1007.7 hPa SW 4.8 km/h 14.5 km/h 83 % 0.0 mm
12:17 8.8 °C 5.9 °C 1007.7 hPa Calm   16.1 km/h 82 % 0.0 mm
12:22 8.6 °C 5.7 °C 1007.7 hPa WSW 4.8 km/h 16.1 km/h 82 % 0.0 mm
12:27 8.4 °C 5.7 °C 1007.7 hPa SSW 3.2 km/h 16.1 km/h 83 % 0.0 mm
12:32 8.5 °C 5.8 °C 1007.7 hPa Calm   11.3 km/h 83 % 0.0 mm
12:42 9.6 °C 6.3 °C 1007.7 hPa SW 11.3 km/h 11.3 km/h 80 % 0.0 mm
12:47 9.6 °C 5.8 °C 1007.7 hPa SW 4.8 km/h 16.1 km/h 77 % 0.0 mm
12:52 9.6 °C 5.8 °C 1007.7 hPa SW 11.3 km/h 17.7 km/h 77 % 0.0 mm
13:02 9.8 °C 5.4 °C 1008.0 hPa SW 12.9 km/h 22.5 km/h 74 % 0.0 mm
13:07 9.8 °C 5.6 °C 1008.4 hPa SW 11.3 km/h 22.5 km/h 75 % 0.0 mm
13:12 9.8 °C 5.4 °C 1008.4 hPa WSW 12.9 km/h 19.3 km/h 74 % 0.0 mm
13:17 9.7 °C 5.3 °C 1008.4 hPa SW 8.0 km/h 24.1 km/h 74 % 0.0 mm
13:22 9.6 °C 5.0 °C 1008.4 hPa SW 4.8 km/h 24.1 km/h 73 % 0.0 mm
13:27 9.5 °C 5.3 °C 1008.4 hPa WSW 4.8 km/h 20.9 km/h 75 % 0.0 mm
13:32 9.4 °C 5.0 °C 1008.4 hPa SSW 3.2 km/h 12.9 km/h 74 % 0.0 mm
13:37 9.3 °C 4.9 °C 1008.4 hPa SW 4.8 km/h 12.9 km/h 74 % 0.0 mm
13:42 9.4 °C 5.4 °C 1008.4 hPa SW 1.6 km/h 14.5 km/h 76 % 0.0 mm
13:52 10.1 °C 5.5 °C 1008.0 hPa South 6.4 km/h 14.5 km/h 73 % 0.0 mm
13:57 10.2 °C 5.6 °C 1008.4 hPa SSW 4.8 km/h 19.3 km/h 73 % 0.0 mm
14:02 10.3 °C 5.1 °C 1008.4 hPa WSW 4.8 km/h 19.3 km/h 70 % 0.0 mm
14:07 9.9 °C 4.9 °C 1008.4 hPa SW 8.0 km/h 19.3 km/h 71 % 0.0 mm
14:17 9.8 °C 5.2 °C 1008.4 hPa SE 6.4 km/h 17.7 km/h 73 % 0.0 mm
14:22 9.7 °C 5.1 °C 1008.4 hPa WSW 8.0 km/h 16.1 km/h 73 % 0.0 mm
14:27 9.7 °C 4.1 °C 1008.4 hPa SW 11.3 km/h 14.5 km/h 68 % 0.0 mm
14:32 9.6 °C 4.2 °C 1008.4 hPa SW 8.0 km/h 20.9 km/h 69 % 0.0 mm
14:37 10.0 °C 4.8 °C 1008.4 hPa SW 4.8 km/h 20.9 km/h 70 % 0.0 mm
14:42 10.3 °C 4.7 °C 1008.4 hPa WSW 14.5 km/h 20.9 km/h 68 % 0.0 mm
14:47 10.2 °C 4.8 °C 1008.4 hPa WSW 6.4 km/h 20.9 km/h 69 % 0.0 mm
14:52 10.3 °C 4.7 °C 1008.4 hPa WSW 3.2 km/h 20.9 km/h 68 % 0.0 mm
14:57 10.3 °C 4.7 °C 1008.4 hPa WSW 8.0 km/h 20.9 km/h 68 % 0.0 mm
15:02 10.0 °C 4.4 °C 1008.4 hPa SW 8.0 km/h 19.3 km/h 68 % 0.0 mm
15:07 10.0 °C 5.0 °C 1008.4 hPa SW 9.7 km/h 19.3 km/h 71 % 0.0 mm
15:12 9.8 °C 4.8 °C 1008.7 hPa SW 8.0 km/h 19.3 km/h 71 % 0.0 mm
15:17 9.7 °C 5.1 °C 1008.7 hPa WSW 6.4 km/h 17.7 km/h 73 % 0.0 mm
15:27 9.3 °C 4.9 °C 1008.7 hPa SSW 6.4 km/h 16.1 km/h 74 % 0.0 mm
15:32 9.1 °C 5.1 °C 1009.0 hPa Calm   14.5 km/h 76 % 0.0 mm
15:37 9.0 °C 5.4 °C 1009.0 hPa SW 1.6 km/h 11.3 km/h 78 % 0.0 mm
15:42 8.9 °C 5.8 °C 1009.0 hPa SW 1.6 km/h 12.9 km/h 81 % 0.0 mm
15:47 8.9 °C 5.5 °C 1009.0 hPa SSW 1.6 km/h 12.9 km/h 79 % 0.3 mm
15:52 8.9 °C 4.9 °C 1009.0 hPa South 4.8 km/h 8.0 km/h 76 % 0.3 mm
15:57 8.7 °C 4.3 °C 1009.0 hPa WSW 3.2 km/h 14.5 km/h 74 % 0.3 mm
16:02 8.7 °C 4.7 °C 1009.0 hPa South 12.9 km/h 14.5 km/h 76 % 0.3 mm
16:07 8.7 °C 4.7 °C 1009.0 hPa SW 6.4 km/h 14.5 km/h 76 % 0.3 mm
16:12 8.7 °C 4.9 °C 1009.0 hPa SW 3.2 km/h 12.9 km/h 77 % 0.3 mm
16:17 8.7 °C 4.7 °C 1009.4 hPa SW 4.8 km/h 12.9 km/h 76 % 0.3 mm
16:22 8.8 °C 4.6 °C 1009.0 hPa SW 9.7 km/h 11.3 km/h 75 % 0.3 mm
16:32 9.1 °C 4.7 °C 1009.4 hPa SW 4.8 km/h 12.9 km/h 74 % 0.3 mm
16:37 9.2 °C 4.8 °C 1009.4 hPa Calm   12.9 km/h 74 % 0.3 mm
16:42 9.1 °C 4.7 °C 1009.4 hPa WSW 1.6 km/h 12.9 km/h 74 % 0.0 mm
16:47 9.1 °C 4.5 °C 1009.4 hPa WSW 6.4 km/h 20.9 km/h 73 % 0.0 mm
16:57 8.9 °C 4.3 °C 1009.4 hPa West 4.8 km/h 20.9 km/h 73 % 0.0 mm
17:02 8.6 °C 4.6 °C 1009.4 hPa WSW 4.8 km/h 16.1 km/h 76 % 0.0 mm
17:12 7.9 °C 5.0 °C 1009.7 hPa South 3.2 km/h 16.1 km/h 82 % 0.0 mm
17:17 7.8 °C 5.1 °C 1009.7 hPa SW 1.6 km/h 16.1 km/h 83 % 0.0 mm
17:22 7.9 °C 5.0 °C 1009.7 hPa WSW 4.8 km/h 12.9 km/h 82 % 0.0 mm
17:27 7.9 °C 5.0 °C 1009.7 hPa WSW 8.0 km/h 14.5 km/h 82 % 0.0 mm
17:32 7.8 °C 4.9 °C 1009.7 hPa SW 6.4 km/h 20.9 km/h 82 % 0.0 mm
17:37 7.7 °C 5.0 °C 1009.7 hPa WSW 4.8 km/h 20.9 km/h 83 % 0.0 mm
17:42 7.4 °C 5.0 °C 1010.0 hPa South 6.4 km/h 17.7 km/h 85 % 0.0 mm
17:47 7.3 °C 5.1 °C 1010.0 hPa West 4.8 km/h 17.7 km/h 86 % 0.0 mm
17:52 7.2 °C 5.0 °C 1010.0 hPa SW 6.4 km/h 17.7 km/h 86 % 0.0 mm
17:57 7.1 °C 4.9 °C 1010.0 hPa SW 6.4 km/h 11.3 km/h 86 % 0.0 mm
18:02 7.2 °C 5.0 °C 1010.0 hPa SW 12.9 km/h 12.9 km/h 86 % 0.0 mm
18:07 7.2 °C 4.8 °C 1010.4 hPa SW 9.7 km/h 19.3 km/h 85 % 0.0 mm
18:12 7.1 °C 4.7 °C 1010.4 hPa SW 3.2 km/h 19.3 km/h 85 % 0.0 mm
18:17 6.9 °C 4.7 °C 1010.4 hPa WSW 3.2 km/h 17.7 km/h 86 % 0.0 mm
18:27 6.9 °C 4.7 °C 1010.4 hPa WSW 3.2 km/h 11.3 km/h 86 % 0.0 mm
18:42 7.0 °C 4.8 °C 1010.7 hPa SW 4.8 km/h 12.9 km/h 86 % 0.0 mm
18:47 6.8 °C 4.8 °C 1010.7 hPa SW 4.8 km/h 12.9 km/h 87 % 0.0 mm
18:52 6.6 °C 4.6 °C 1010.7 hPa SW 3.2 km/h 9.7 km/h 87 % 0.0 mm
19:02 6.5 °C 4.7 °C 1010.7 hPa SW 3.2 km/h 9.7 km/h 88 % 0.0 mm
19:07 6.3 °C 4.6 °C 1011.1 hPa SW 3.2 km/h 9.7 km/h 89 % 0.0 mm
19:12 6.3 °C 4.6 °C 1011.1 hPa SSE 3.2 km/h 9.7 km/h 89 % 0.0 mm
19:17 6.3 °C 4.5 °C 1011.1 hPa Calm   8.0 km/h 88 % 0.0 mm
19:22 6.3 °C 4.5 °C 1011.1 hPa SW 3.2 km/h 8.0 km/h 88 % 0.0 mm
19:27 6.4 °C 4.6 °C 1011.1 hPa WSW 1.6 km/h 8.0 km/h 88 % 0.0 mm
19:32 6.3 °C 4.3 °C 1011.1 hPa SW 9.7 km/h 9.7 km/h 87 % 0.0 mm
19:39 6.3 °C 4.3 °C 1011.1 hPa SSW 1.6 km/h 12.9 km/h 87 % 0.0 mm
19:47 6.1 °C 4.3 °C 1011.1 hPa South 4.8 km/h 12.9 km/h 88 % 0.0 mm
19:52 6.2 °C 4.4 °C 1011.1 hPa SSW 3.2 km/h 8.0 km/h 88 % 0.0 mm
19:57 6.2 °C 4.4 °C 1011.1 hPa SW 4.8 km/h 9.7 km/h 88 % 0.0 mm
20:02 6.2 °C 4.4 °C 1011.1 hPa SSW 4.8 km/h 9.7 km/h 88 % 0.0 mm
20:07 6.2 °C 4.4 °C 1011.1 hPa SW 3.2 km/h 9.7 km/h 88 % 0.0 mm
20:12 6.2 °C 4.4 °C 1011.1 hPa SW 4.8 km/h 11.3 km/h 88 % 0.0 mm
20:17 6.2 °C 4.5 °C 1011.1 hPa Calm   11.3 km/h 89 % 0.0 mm
20:22 6.1 °C 4.4 °C 1011.1 hPa Calm   11.3 km/h 89 % 0.0 mm
20:32 5.8 °C 4.3 °C 1011.1 hPa SW 3.2 km/h 8.0 km/h 90 % 0.0 mm
20:37 5.7 °C 4.2 °C 1011.1 hPa SW 6.4 km/h 9.7 km/h 90 % 0.0 mm
20:42 5.7 °C 4.2 °C 1011.4 hPa WSW 4.8 km/h 9.7 km/h 90 % 0.0 mm
20:52 5.7 °C 4.3 °C 1011.4 hPa SW 4.8 km/h 6.4 km/h 91 % 0.0 mm
21:02 5.7 °C 4.3 °C 1011.4 hPa WSW 1.6 km/h 6.4 km/h 91 % 0.0 mm
21:07 5.6 °C 4.4 °C 1011.4 hPa South 3.2 km/h 6.4 km/h 92 % 0.0 mm
21:12 5.6 °C 4.4 °C 1011.4 hPa SW 1.6 km/h 4.8 km/h 92 % 0.0 mm
21:17 5.7 °C 4.5 °C 1011.4 hPa WSW 3.2 km/h 4.8 km/h 92 % 0.0 mm
21:22 5.7 °C 4.5 °C 1011.4 hPa Calm   4.8 km/h 92 % 0.0 mm
21:27 5.9 °C 4.5 °C 1011.4 hPa SW 3.2 km/h 6.4 km/h 91 % 0.0 mm
21:32 6.0 °C 4.6 °C 1011.1 hPa WSW 1.6 km/h 6.4 km/h 91 % 0.0 mm
21:37 6.1 °C 4.7 °C 1011.1 hPa SW 4.8 km/h 6.4 km/h 91 % 0.0 mm
21:42 6.1 °C 4.6 °C 1011.1 hPa Calm   6.4 km/h 90 % 0.0 mm
21:47 6.1 °C 4.6 °C 1011.1 hPa WSW 3.2 km/h 6.4 km/h 90 % 0.0 mm
21:52 6.1 °C 4.6 °C 1011.1 hPa WSW 3.2 km/h 8.0 km/h 90 % 0.0 mm
21:57 6.1 °C 4.6 °C 1011.1 hPa SW 6.4 km/h 9.7 km/h 90 % 0.0 mm
22:02 6.1 °C 4.6 °C 1011.1 hPa SW 4.8 km/h 9.7 km/h 90 % 0.0 mm
22:07 6.0 °C 4.5 °C 1011.1 hPa SW 4.8 km/h 9.7 km/h 90 % 0.0 mm
22:12 5.9 °C 4.4 °C 1011.1 hPa SW 4.8 km/h 8.0 km/h 90 % 0.0 mm
22:17 5.9 °C 4.4 °C 1011.1 hPa SW 4.8 km/h 8.0 km/h 90 % 0.0 mm
22:22 5.9 °C 4.4 °C 1011.1 hPa WSW 1.6 km/h 8.0 km/h 90 % 0.0 mm
22:27 5.9 °C 4.4 °C 1011.1 hPa SSW 4.8 km/h 6.4 km/h 90 % 0.0 mm
22:32 5.9 °C 4.4 °C 1011.1 hPa SW 4.8 km/h 8.0 km/h 90 % 0.0 mm
22:37 5.9 °C 4.4 °C 1010.7 hPa SW 6.4 km/h 8.0 km/h 90 % 0.0 mm
22:42 6.0 °C 4.5 °C 1010.7 hPa SW 4.8 km/h 9.7 km/h 90 % 0.0 mm
22:47 6.0 °C 4.5 °C 1010.7 hPa SSW 6.4 km/h 9.7 km/h 90 % 0.0 mm
22:52 6.1 °C 4.6 °C 1010.7 hPa SSW 8.0 km/h 11.3 km/h 90 % 0.0 mm
22:57 6.1 °C 4.6 °C 1010.7 hPa WSW 3.2 km/h 11.3 km/h 90 % 0.0 mm
23:02 6.2 °C 4.7 °C 1010.4 hPa WSW 4.8 km/h 11.3 km/h 90 % 0.0 mm
23:07 6.2 °C 4.7 °C 1010.4 hPa SW 4.8 km/h 9.7 km/h 90 % 0.0 mm
23:12 6.3 °C 4.8 °C 1010.4 hPa WSW 1.6 km/h 9.7 km/h 90 % 0.0 mm
23:17 6.4 °C 4.9 °C 1010.4 hPa WSW 6.4 km/h 9.7 km/h 90 % 0.0 mm
23:22 6.5 °C 5.0 °C 1010.4 hPa SW 4.8 km/h 11.3 km/h 90 % 0.0 mm
23:27 6.6 °C 5.1 °C 1010.0 hPa West 4.8 km/h 11.3 km/h 90 % 0.0 mm
23:32 6.6 °C 5.1 °C 1010.0 hPa SSW 4.8 km/h 12.9 km/h 90 % 0.0 mm
23:37 6.7 °C 5.0 °C 1010.0 hPa West 4.8 km/h 12.9 km/h 89 % 0.0 mm
23:42 6.7 °C 5.0 °C 1009.7 hPa WSW 6.4 km/h 14.5 km/h 89 % 0.0 mm
23:52 6.7 °C 5.0 °C 1009.7 hPa SW 6.4 km/h 14.5 km/h 89 % 0.0 mm
23:57 6.7 °C 5.2 °C 1009.7 hPa SW 4.8 km/h 14.5 km/h 90 % 0.0 mm
Meteo18
Compliments of Weather Underground - 4 mb

Script developed by  Jim McMurry - jmcmurry@mwt.net Adapted for the template by  Wim van der Kuil - Leuven-Template.eu

You find our weather info also at:

European Weather Network

Weather Underground

Equipment we use:

Weather-station
Davis Vue

Weather-program
Meteohub

Weather-server
Raspberry PI 2 B+

Provider
1 and 1

Davis Vue

Meteohub

Raspberry PI 2 B+

1 and 1